sensor_id;sensor_type;location;lat;lon;timestamp;P1;durP1;ratioP1;P2;durP2;ratioP2
19942;SDS011;10133;50.956;17.276;2023-03-12T00:00:14;21.23;;;9.23;;
19942;SDS011;10133;50.956;17.276;2023-03-12T00:02:41;15.77;;;8.17;;
19942;SDS011;10133;50.956;17.276;2023-03-12T00:05:08;16.07;;;7.70;;
19942;SDS011;10133;50.956;17.276;2023-03-12T00:07:36;13.03;;;6.93;;
19942;SDS011;10133;50.956;17.276;2023-03-12T00:10:04;12.70;;;7.37;;
19942;SDS011;10133;50.956;17.276;2023-03-12T00:12:32;12.83;;;6.53;;
19942;SDS011;10133;50.956;17.276;2023-03-12T00:14:59;13.10;;;7.60;;
19942;SDS011;10133;50.956;17.276;2023-03-12T00:17:27;14.90;;;7.10;;
19942;SDS011;10133;50.956;17.276;2023-03-12T00:19:55;15.07;;;7.40;;
19942;SDS011;10133;50.956;17.276;2023-03-12T00:22:22;14.57;;;7.27;;
19942;SDS011;10133;50.956;17.276;2023-03-12T00:24:51;13.10;;;6.90;;
19942;SDS011;10133;50.956;17.276;2023-03-12T00:27:19;13.67;;;6.90;;
19942;SDS011;10133;50.956;17.276;2023-03-12T00:29:46;14.50;;;7.47;;
19942;SDS011;10133;50.956;17.276;2023-03-12T00:32:13;16.50;;;7.37;;
19942;SDS011;10133;50.956;17.276;2023-03-12T00:34:41;16.37;;;7.47;;
19942;SDS011;10133;50.956;17.276;2023-03-12T00:37:08;15.27;;;7.80;;
19942;SDS011;10133;50.956;17.276;2023-03-12T00:39:35;17.63;;;7.80;;
19942;SDS011;10133;50.956;17.276;2023-03-12T00:42:02;14.77;;;7.23;;
19942;SDS011;10133;50.956;17.276;2023-03-12T00:44:29;14.60;;;6.63;;
19942;SDS011;10133;50.956;17.276;2023-03-12T00:46:56;14.10;;;6.93;;
19942;SDS011;10133;50.956;17.276;2023-03-12T00:49:23;11.70;;;6.53;;
19942;SDS011;10133;50.956;17.276;2023-03-12T00:51:50;10.57;;;6.10;;
19942;SDS011;10133;50.956;17.276;2023-03-12T00:54:17;12.43;;;5.93;;
19942;SDS011;10133;50.956;17.276;2023-03-12T00:56:44;10.70;;;6.03;;
19942;SDS011;10133;50.956;17.276;2023-03-12T00:59:12;12.37;;;6.33;;
19942;SDS011;10133;50.956;17.276;2023-03-12T01:01:40;9.90;;;5.80;;
19942;SDS011;10133;50.956;17.276;2023-03-12T01:04:08;11.43;;;6.10;;
19942;SDS011;10133;50.956;17.276;2023-03-12T01:06:35;10.73;;;6.03;;
19942;SDS011;10133;50.956;17.276;2023-03-12T01:09:03;10.57;;;5.73;;
19942;SDS011;10133;50.956;17.276;2023-03-12T01:11:31;10.43;;;6.50;;
19942;SDS011;10133;50.956;17.276;2023-03-12T01:13:58;12.20;;;6.10;;
19942;SDS011;10133;50.956;17.276;2023-03-12T01:16:26;9.00;;;5.10;;
19942;SDS011;10133;50.956;17.276;2023-03-12T01:18:59;10.60;;;5.60;;
19942;SDS011;10133;50.956;17.276;2023-03-12T01:21:27;8.13;;;5.47;;
19942;SDS011;10133;50.956;17.276;2023-03-12T01:23:55;10.97;;;5.60;;
19942;SDS011;10133;50.956;17.276;2023-03-12T01:26:22;7.57;;;5.00;;
19942;SDS011;10133;50.956;17.276;2023-03-12T01:28:49;10.30;;;5.40;;
19942;SDS011;10133;50.956;17.276;2023-03-12T01:31:17;12.20;;;5.93;;
19942;SDS011;10133;50.956;17.276;2023-03-12T01:33:47;12.17;;;5.73;;
19942;SDS011;10133;50.956;17.276;2023-03-12T01:36:16;10.90;;;5.87;;
19942;SDS011;10133;50.956;17.276;2023-03-12T01:38:51;10.77;;;5.40;;
19942;SDS011;10133;50.956;17.276;2023-03-12T01:41:20;11.43;;;6.27;;
19942;SDS011;10133;50.956;17.276;2023-03-12T01:43:48;11.37;;;5.27;;
19942;SDS011;10133;50.956;17.276;2023-03-12T01:46:34;14.43;;;6.53;;
19942;SDS011;10133;50.956;17.276;2023-03-12T01:49:23;13.83;;;5.97;;
19942;SDS011;10133;50.956;17.276;2023-03-12T01:57:03;10.83;;;5.73;;
19942;SDS011;10133;50.956;17.276;2023-03-12T01:59:37;11.83;;;5.33;;
19942;SDS011;10133;50.956;17.276;2023-03-12T02:02:09;8.47;;;4.63;;
19942;SDS011;10133;50.956;17.276;2023-03-12T02:04:39;8.80;;;4.23;;
19942;SDS011;10133;50.956;17.276;2023-03-12T02:07:11;6.57;;;4.37;;
19942;SDS011;10133;50.956;17.276;2023-03-12T02:09:45;7.93;;;3.90;;
19942;SDS011;10133;50.956;17.276;2023-03-12T02:12:14;9.57;;;3.73;;
19942;SDS011;10133;50.956;17.276;2023-03-12T02:14:42;7.80;;;4.57;;
19942;SDS011;10133;50.956;17.276;2023-03-12T02:17:09;6.90;;;4.10;;
19942;SDS011;10133;50.956;17.276;2023-03-12T02:19:41;6.90;;;4.20;;
19942;SDS011;10133;50.956;17.276;2023-03-12T02:22:25;8.97;;;3.93;;
19942;SDS011;10133;50.956;17.276;2023-03-12T02:24:57;9.23;;;4.00;;
19942;SDS011;10133;50.956;17.276;2023-03-12T02:27:49;7.23;;;4.00;;
19942;SDS011;10133;50.956;17.276;2023-03-12T02:30:17;9.20;;;4.40;;
19942;SDS011;10133;50.956;17.276;2023-03-12T02:32:44;8.77;;;4.33;;
19942;SDS011;10133;50.956;17.276;2023-03-12T02:35:14;6.87;;;3.83;;
19942;SDS011;10133;50.956;17.276;2023-03-12T02:37:54;10.33;;;3.73;;
19942;SDS011;10133;50.956;17.276;2023-03-12T02:40:41;8.33;;;4.37;;
19942;SDS011;10133;50.956;17.276;2023-03-12T02:43:11;6.60;;;3.70;;
19942;SDS011;10133;50.956;17.276;2023-03-12T02:45:38;7.00;;;3.73;;
19942;SDS011;10133;50.956;17.276;2023-03-12T02:48:05;9.97;;;3.47;;
19942;SDS011;10133;50.956;17.276;2023-03-12T02:50:34;8.87;;;3.77;;
19942;SDS011;10133;50.956;17.276;2023-03-12T02:53:01;5.83;;;3.73;;
19942;SDS011;10133;50.956;17.276;2023-03-12T02:55:28;6.57;;;3.13;;
19942;SDS011;10133;50.956;17.276;2023-03-12T02:57:55;4.83;;;3.00;;
19942;SDS011;10133;50.956;17.276;2023-03-12T03:00:22;6.80;;;3.40;;
19942;SDS011;10133;50.956;17.276;2023-03-12T03:02:49;5.03;;;2.83;;
19942;SDS011;10133;50.956;17.276;2023-03-12T03:05:16;6.53;;;3.47;;
19942;SDS011;10133;50.956;17.276;2023-03-12T03:07:43;9.23;;;4.00;;
19942;SDS011;10133;50.956;17.276;2023-03-12T03:10:09;8.60;;;3.83;;
19942;SDS011;10133;50.956;17.276;2023-03-12T03:12:36;9.07;;;3.23;;
19942;SDS011;10133;50.956;17.276;2023-03-12T03:15:03;6.63;;;3.30;;
19942;SDS011;10133;50.956;17.276;2023-03-12T03:17:31;8.43;;;3.30;;
19942;SDS011;10133;50.956;17.276;2023-03-12T03:19:58;8.50;;;3.40;;
19942;SDS011;10133;50.956;17.276;2023-03-12T03:22:25;7.83;;;3.17;;
19942;SDS011;10133;50.956;17.276;2023-03-12T03:24:52;6.07;;;3.13;;
19942;SDS011;10133;50.956;17.276;2023-03-12T03:27:19;5.63;;;3.23;;
19942;SDS011;10133;50.956;17.276;2023-03-12T03:29:46;5.93;;;3.03;;
19942;SDS011;10133;50.956;17.276;2023-03-12T03:32:13;6.57;;;2.73;;
19942;SDS011;10133;50.956;17.276;2023-03-12T03:34:40;3.67;;;2.43;;
19942;SDS011;10133;50.956;17.276;2023-03-12T03:37:07;4.43;;;2.60;;
19942;SDS011;10133;50.956;17.276;2023-03-12T03:39:33;7.20;;;3.10;;
19942;SDS011;10133;50.956;17.276;2023-03-12T03:42:00;5.47;;;2.90;;
19942;SDS011;10133;50.956;17.276;2023-03-12T03:44:27;4.57;;;3.03;;
19942;SDS011;10133;50.956;17.276;2023-03-12T03:46:55;8.27;;;2.67;;
19942;SDS011;10133;50.956;17.276;2023-03-12T03:49:22;7.17;;;2.70;;
19942;SDS011;10133;50.956;17.276;2023-03-12T03:51:52;6.13;;;2.87;;
19942;SDS011;10133;50.956;17.276;2023-03-12T03:54:19;6.30;;;2.63;;
19942;SDS011;10133;50.956;17.276;2023-03-12T03:56:46;6.43;;;2.40;;
19942;SDS011;10133;50.956;17.276;2023-03-12T03:59:13;6.83;;;2.50;;
19942;SDS011;10133;50.956;17.276;2023-03-12T04:01:40;6.50;;;1.93;;
19942;SDS011;10133;50.956;17.276;2023-03-12T04:04:07;4.37;;;2.40;;
19942;SDS011;10133;50.956;17.276;2023-03-12T04:06:34;4.37;;;2.30;;
19942;SDS011;10133;50.956;17.276;2023-03-12T04:09:01;7.70;;;2.43;;
19942;SDS011;10133;50.956;17.276;2023-03-12T04:11:28;6.30;;;2.23;;
19942;SDS011;10133;50.956;17.276;2023-03-12T04:13:55;6.40;;;3.33;;
19942;SDS011;10133;50.956;17.276;2023-03-12T04:16:22;5.77;;;2.00;;
19942;SDS011;10133;50.956;17.276;2023-03-12T04:18:50;4.87;;;1.93;;
19942;SDS011;10133;50.956;17.276;2023-03-12T04:21:17;4.43;;;1.80;;
19942;SDS011;10133;50.956;17.276;2023-03-12T04:23:44;9.60;;;1.97;;
19942;SDS011;10133;50.956;17.276;2023-03-12T04:26:10;3.10;;;2.03;;
19942;SDS011;10133;50.956;17.276;2023-03-12T04:28:37;4.07;;;1.80;;
19942;SDS011;10133;50.956;17.276;2023-03-12T04:31:05;4.07;;;2.03;;
19942;SDS011;10133;50.956;17.276;2023-03-12T04:33:34;5.27;;;1.73;;
19942;SDS011;10133;50.956;17.276;2023-03-12T04:36:02;2.43;;;1.63;;
19942;SDS011;10133;50.956;17.276;2023-03-12T04:38:30;4.73;;;2.20;;
19942;SDS011;10133;50.956;17.276;2023-03-12T04:41:00;3.47;;;1.70;;
19942;SDS011;10133;50.956;17.276;2023-03-12T04:43:29;4.80;;;1.83;;
19942;SDS011;10133;50.956;17.276;2023-03-12T04:45:57;3.20;;;1.73;;
19942;SDS011;10133;50.956;17.276;2023-03-12T04:48:24;3.20;;;1.90;;
19942;SDS011;10133;50.956;17.276;2023-03-12T04:50:52;3.50;;;1.40;;
19942;SDS011;10133;50.956;17.276;2023-03-12T04:53:20;3.77;;;1.70;;
19942;SDS011;10133;50.956;17.276;2023-03-12T04:55:47;3.13;;;1.70;;
19942;SDS011;10133;50.956;17.276;2023-03-12T04:58:15;5.20;;;1.70;;
19942;SDS011;10133;50.956;17.276;2023-03-12T05:00:42;2.17;;;1.40;;
19942;SDS011;10133;50.956;17.276;2023-03-12T05:03:09;6.30;;;1.40;;
19942;SDS011;10133;50.956;17.276;2023-03-12T05:05:37;3.33;;;1.90;;
19942;SDS011;10133;50.956;17.276;2023-03-12T05:08:04;2.93;;;1.50;;
19942;SDS011;10133;50.956;17.276;2023-03-12T05:10:31;3.53;;;1.83;;
19942;SDS011;10133;50.956;17.276;2023-03-12T05:12:58;2.77;;;1.33;;
19942;SDS011;10133;50.956;17.276;2023-03-12T05:15:25;3.07;;;1.30;;
19942;SDS011;10133;50.956;17.276;2023-03-12T05:17:52;4.23;;;1.50;;
19942;SDS011;10133;50.956;17.276;2023-03-12T05:20:20;3.30;;;1.83;;
19942;SDS011;10133;50.956;17.276;2023-03-12T05:22:47;3.23;;;1.47;;
19942;SDS011;10133;50.956;17.276;2023-03-12T05:25:14;2.73;;;1.60;;
19942;SDS011;10133;50.956;17.276;2023-03-12T05:27:41;7.57;;;1.50;;
19942;SDS011;10133;50.956;17.276;2023-03-12T05:30:08;4.67;;;1.30;;
19942;SDS011;10133;50.956;17.276;2023-03-12T05:32:36;2.33;;;1.20;;
19942;SDS011;10133;50.956;17.276;2023-03-12T05:35:04;4.13;;;1.27;;
19942;SDS011;10133;50.956;17.276;2023-03-12T05:37:31;4.83;;;1.50;;
19942;SDS011;10133;50.956;17.276;2023-03-12T05:39:58;4.93;;;1.30;;
19942;SDS011;10133;50.956;17.276;2023-03-12T05:42:25;1.73;;;1.20;;
19942;SDS011;10133;50.956;17.276;2023-03-12T05:44:52;2.10;;;1.50;;
19942;SDS011;10133;50.956;17.276;2023-03-12T05:47:19;8.23;;;1.60;;
19942;SDS011;10133;50.956;17.276;2023-03-12T05:49:47;4.03;;;1.20;;
19942;SDS011;10133;50.956;17.276;2023-03-12T05:52:14;3.77;;;1.37;;
19942;SDS011;10133;50.956;17.276;2023-03-12T05:54:41;5.30;;;1.43;;
19942;SDS011;10133;50.956;17.276;2023-03-12T05:57:08;2.70;;;1.27;;
19942;SDS011;10133;50.956;17.276;2023-03-12T05:59:35;3.60;;;1.30;;
19942;SDS011;10133;50.956;17.276;2023-03-12T06:02:01;3.93;;;1.20;;
19942;SDS011;10133;50.956;17.276;2023-03-12T06:04:28;4.73;;;1.20;;
19942;SDS011;10133;50.956;17.276;2023-03-12T06:06:55;3.37;;;1.30;;
19942;SDS011;10133;50.956;17.276;2023-03-12T06:09:22;3.70;;;1.10;;
19942;SDS011;10133;50.956;17.276;2023-03-12T06:11:49;4.20;;;1.10;;
19942;SDS011;10133;50.956;17.276;2023-03-12T06:14:16;2.80;;;1.10;;
19942;SDS011;10133;50.956;17.276;2023-03-12T06:16:43;4.53;;;1.20;;
19942;SDS011;10133;50.956;17.276;2023-03-12T06:19:10;3.03;;;1.07;;
19942;SDS011;10133;50.956;17.276;2023-03-12T06:21:41;4.10;;;1.10;;
19942;SDS011;10133;50.956;17.276;2023-03-12T06:24:08;1.87;;;0.90;;
19942;SDS011;10133;50.956;17.276;2023-03-12T06:26:35;3.60;;;1.10;;
19942;SDS011;10133;50.956;17.276;2023-03-12T06:29:02;3.43;;;1.30;;
19942;SDS011;10133;50.956;17.276;2023-03-12T06:31:29;4.77;;;1.17;;
19942;SDS011;10133;50.956;17.276;2023-03-12T06:33:56;4.43;;;1.37;;
19942;SDS011;10133;50.956;17.276;2023-03-12T06:36:23;5.40;;;1.30;;
19942;SDS011;10133;50.956;17.276;2023-03-12T06:38:50;3.23;;;1.30;;
19942;SDS011;10133;50.956;17.276;2023-03-12T06:41:19;5.57;;;1.30;;
19942;SDS011;10133;50.956;17.276;2023-03-12T06:43:46;3.10;;;1.13;;
19942;SDS011;10133;50.956;17.276;2023-03-12T06:46:14;5.50;;;1.43;;
19942;SDS011;10133;50.956;17.276;2023-03-12T06:48:43;3.97;;;1.47;;
19942;SDS011;10133;50.956;17.276;2023-03-12T06:51:12;3.53;;;1.23;;
19942;SDS011;10133;50.956;17.276;2023-03-12T06:53:41;4.37;;;1.20;;
19942;SDS011;10133;50.956;17.276;2023-03-12T06:56:08;2.93;;;1.40;;
19942;SDS011;10133;50.956;17.276;2023-03-12T06:58:36;3.47;;;1.20;;
19942;SDS011;10133;50.956;17.276;2023-03-12T07:01:04;4.30;;;1.20;;
19942;SDS011;10133;50.956;17.276;2023-03-12T07:03:31;2.03;;;1.13;;
19942;SDS011;10133;50.956;17.276;2023-03-12T07:05:58;3.03;;;1.20;;
19942;SDS011;10133;50.956;17.276;2023-03-12T07:08:26;3.30;;;1.37;;
19942;SDS011;10133;50.956;17.276;2023-03-12T07:10:56;4.13;;;1.13;;
19942;SDS011;10133;50.956;17.276;2023-03-12T07:13:27;4.03;;;1.60;;
19942;SDS011;10133;50.956;17.276;2023-03-12T07:15:54;3.93;;;2.03;;
19942;SDS011;10133;50.956;17.276;2023-03-12T07:18:21;5.43;;;1.67;;
19942;SDS011;10133;50.956;17.276;2023-03-12T07:20:48;2.97;;;1.53;;
19942;SDS011;10133;50.956;17.276;2023-03-12T07:23:15;6.40;;;1.47;;
19942;SDS011;10133;50.956;17.276;2023-03-12T07:25:43;3.97;;;1.50;;
19942;SDS011;10133;50.956;17.276;2023-03-12T07:28:11;2.83;;;1.40;;
19942;SDS011;10133;50.956;17.276;2023-03-12T07:30:38;4.77;;;1.67;;
19942;SDS011;10133;50.956;17.276;2023-03-12T07:33:07;5.17;;;1.77;;
19942;SDS011;10133;50.956;17.276;2023-03-12T07:35:36;3.07;;;1.60;;
19942;SDS011;10133;50.956;17.276;2023-03-12T07:38:05;2.40;;;1.67;;
19942;SDS011;10133;50.956;17.276;2023-03-12T07:40:32;2.37;;;1.40;;
19942;SDS011;10133;50.956;17.276;2023-03-12T07:43:00;2.50;;;1.33;;
19942;SDS011;10133;50.956;17.276;2023-03-12T07:45:28;3.20;;;1.80;;
19942;SDS011;10133;50.956;17.276;2023-03-12T07:47:55;4.60;;;1.70;;
19942;SDS011;10133;50.956;17.276;2023-03-12T07:50:22;2.92;;;1.50;;
19942;SDS011;10133;50.956;17.276;2023-03-12T07:52:49;5.65;;;1.73;;
19942;SDS011;10133;50.956;17.276;2023-03-12T07:55:16;3.03;;;1.40;;
19942;SDS011;10133;50.956;17.276;2023-03-12T07:57:43;3.30;;;1.63;;
19942;SDS011;10133;50.956;17.276;2023-03-12T08:00:11;3.03;;;1.52;;
19942;SDS011;10133;50.956;17.276;2023-03-12T08:02:38;2.85;;;1.35;;
19942;SDS011;10133;50.956;17.276;2023-03-12T08:05:06;3.80;;;1.50;;
19942;SDS011;10133;50.956;17.276;2023-03-12T08:07:33;4.53;;;2.00;;
19942;SDS011;10133;50.956;17.276;2023-03-12T08:10:02;5.38;;;1.40;;
19942;SDS011;10133;50.956;17.276;2023-03-12T08:12:31;4.15;;;1.42;;
19942;SDS011;10133;50.956;17.276;2023-03-12T08:14:58;3.53;;;1.30;;
19942;SDS011;10133;50.956;17.276;2023-03-12T08:17:25;3.77;;;1.50;;
19942;SDS011;10133;50.956;17.276;2023-03-12T08:19:51;4.07;;;1.30;;
19942;SDS011;10133;50.956;17.276;2023-03-12T08:22:19;4.23;;;1.83;;
19942;SDS011;10133;50.956;17.276;2023-03-12T08:24:46;4.50;;;1.50;;
19942;SDS011;10133;50.956;17.276;2023-03-12T08:27:13;4.83;;;1.40;;
19942;SDS011;10133;50.956;17.276;2023-03-12T08:29:40;7.00;;;1.70;;
19942;SDS011;10133;50.956;17.276;2023-03-12T08:32:07;3.93;;;1.60;;
19942;SDS011;10133;50.956;17.276;2023-03-12T08:34:36;4.13;;;1.40;;
19942;SDS011;10133;50.956;17.276;2023-03-12T08:37:03;3.17;;;1.23;;
19942;SDS011;10133;50.956;17.276;2023-03-12T08:39:31;2.13;;;1.20;;
19942;SDS011;10133;50.956;17.276;2023-03-12T08:41:58;4.87;;;1.80;;
19942;SDS011;10133;50.956;17.276;2023-03-12T08:44:25;5.23;;;1.50;;
19942;SDS011;10133;50.956;17.276;2023-03-12T08:46:52;3.53;;;1.70;;
19942;SDS011;10133;50.956;17.276;2023-03-12T08:49:20;4.23;;;1.60;;
19942;SDS011;10133;50.956;17.276;2023-03-12T08:51:47;3.47;;;1.47;;
19942;SDS011;10133;50.956;17.276;2023-03-12T08:54:17;4.70;;;1.80;;
19942;SDS011;10133;50.956;17.276;2023-03-12T08:56:48;3.27;;;1.67;;
19942;SDS011;10133;50.956;17.276;2023-03-12T08:59:17;4.37;;;1.57;;
19942;SDS011;10133;50.956;17.276;2023-03-12T09:01:48;4.03;;;1.40;;
19942;SDS011;10133;50.956;17.276;2023-03-12T09:04:16;7.07;;;1.80;;
19942;SDS011;10133;50.956;17.276;2023-03-12T09:06:43;4.23;;;1.87;;
19942;SDS011;10133;50.956;17.276;2023-03-12T09:09:10;4.87;;;1.97;;
19942;SDS011;10133;50.956;17.276;2023-03-12T09:11:38;3.00;;;1.73;;
19942;SDS011;10133;50.956;17.276;2023-03-12T09:14:06;2.60;;;1.33;;
19942;SDS011;10133;50.956;17.276;2023-03-12T09:16:53;7.57;;;2.00;;
19942;SDS011;10133;50.956;17.276;2023-03-12T09:19:20;4.77;;;1.77;;
19942;SDS011;10133;50.956;17.276;2023-03-12T09:21:47;4.63;;;1.80;;
19942;SDS011;10133;50.956;17.276;2023-03-12T09:24:15;7.37;;;2.17;;
19942;SDS011;10133;50.956;17.276;2023-03-12T09:26:42;5.47;;;1.90;;
19942;SDS011;10133;50.956;17.276;2023-03-12T09:29:09;4.27;;;1.80;;
19942;SDS011;10133;50.956;17.276;2023-03-12T09:31:36;4.07;;;1.70;;
19942;SDS011;10133;50.956;17.276;2023-03-12T09:34:03;5.20;;;1.83;;
19942;SDS011;10133;50.956;17.276;2023-03-12T09:36:30;5.57;;;2.07;;
19942;SDS011;10133;50.956;17.276;2023-03-12T09:38:58;3.80;;;1.70;;
19942;SDS011;10133;50.956;17.276;2023-03-12T09:41:26;4.20;;;1.70;;
19942;SDS011;10133;50.956;17.276;2023-03-12T09:44:01;7.57;;;1.80;;
19942;SDS011;10133;50.956;17.276;2023-03-12T09:46:40;7.47;;;2.00;;
19942;SDS011;10133;50.956;17.276;2023-03-12T09:49:18;4.23;;;1.87;;
19942;SDS011;10133;50.956;17.276;2023-03-12T09:52:06;4.53;;;1.77;;
19942;SDS011;10133;50.956;17.276;2023-03-12T09:54:44;4.43;;;1.60;;
19942;SDS011;10133;50.956;17.276;2023-03-12T09:57:21;2.57;;;1.70;;
19942;SDS011;10133;50.956;17.276;2023-03-12T09:59:50;7.40;;;1.90;;
19942;SDS011;10133;50.956;17.276;2023-03-12T10:05:37;4.00;;;1.43;;
19942;SDS011;10133;50.956;17.276;2023-03-12T10:16:29;2.90;;;1.50;;
19942;SDS011;10133;50.956;17.276;2023-03-12T10:19:09;3.72;;;1.70;;
19942;SDS011;10133;50.956;17.276;2023-03-12T10:24:30;4.80;;;1.92;;
19942;SDS011;10133;50.956;17.276;2023-03-12T10:27:08;3.58;;;1.67;;
19942;SDS011;10133;50.956;17.276;2023-03-12T10:29:40;6.07;;;2.13;;
19942;SDS011;10133;50.956;17.276;2023-03-12T10:32:12;4.13;;;1.98;;
19942;SDS011;10133;50.956;17.276;2023-03-12T10:37:47;3.50;;;1.85;;
19942;SDS011;10133;50.956;17.276;2023-03-12T10:40:23;5.75;;;1.90;;
19942;SDS011;10133;50.956;17.276;2023-03-12T10:42:53;4.28;;;2.00;;
19942;SDS011;10133;50.956;17.276;2023-03-12T10:47:57;3.88;;;1.90;;
19942;SDS011;10133;50.956;17.276;2023-03-12T10:50:30;5.10;;;2.10;;
19942;SDS011;10133;50.956;17.276;2023-03-12T10:55:59;5.88;;;1.88;;
19942;SDS011;10133;50.956;17.276;2023-03-12T10:58:41;3.40;;;1.88;;
19942;SDS011;10133;50.956;17.276;2023-03-12T11:03:51;4.72;;;1.75;;
19942;SDS011;10133;50.956;17.276;2023-03-12T11:06:33;4.05;;;1.88;;
19942;SDS011;10133;50.956;17.276;2023-03-12T11:09:12;3.63;;;2.00;;
19942;SDS011;10133;50.956;17.276;2023-03-12T11:11:43;3.40;;;1.95;;
19942;SDS011;10133;50.956;17.276;2023-03-12T11:16:43;4.43;;;2.00;;
19942;SDS011;10133;50.956;17.276;2023-03-12T11:19:11;3.38;;;2.10;;
19942;SDS011;10133;50.956;17.276;2023-03-12T11:21:52;4.18;;;1.90;;
19942;SDS011;10133;50.956;17.276;2023-03-12T11:24:27;4.28;;;2.05;;
19942;SDS011;10133;50.956;17.276;2023-03-12T11:26:59;5.45;;;1.80;;
19942;SDS011;10133;50.956;17.276;2023-03-12T11:29:37;6.82;;;2.13;;
19942;SDS011;10133;50.956;17.276;2023-03-12T11:34:44;3.90;;;2.20;;
19942;SDS011;10133;50.956;17.276;2023-03-12T11:40:37;6.45;;;2.50;;
19942;SDS011;10133;50.956;17.276;2023-03-12T11:43:35;5.25;;;2.42;;
19942;SDS011;10133;50.956;17.276;2023-03-12T11:54:47;7.80;;;2.27;;
19942;SDS011;10133;50.956;17.276;2023-03-12T12:00:43;4.43;;;2.10;;
19942;SDS011;10133;50.956;17.276;2023-03-12T12:11:38;5.47;;;2.60;;
19942;SDS011;10133;50.956;17.276;2023-03-12T12:14:38;4.60;;;2.27;;
19942;SDS011;10133;50.956;17.276;2023-03-12T12:22:51;4.20;;;2.37;;
19942;SDS011;10133;50.956;17.276;2023-03-12T12:36:51;4.53;;;2.17;;
19942;SDS011;10133;50.956;17.276;2023-03-12T12:39:40;5.60;;;2.40;;
19942;SDS011;10133;50.956;17.276;2023-03-12T12:42:15;6.57;;;2.57;;
19942;SDS011;10133;50.956;17.276;2023-03-12T12:44:49;6.77;;;2.50;;
19942;SDS011;10133;50.956;17.276;2023-03-12T12:47:21;5.57;;;2.50;;
19942;SDS011;10133;50.956;17.276;2023-03-12T12:50:13;5.97;;;2.13;;
19942;SDS011;10133;50.956;17.276;2023-03-12T12:52:49;6.87;;;2.50;;
19942;SDS011;10133;50.956;17.276;2023-03-12T12:55:27;5.90;;;2.43;;
19942;SDS011;10133;50.956;17.276;2023-03-12T12:58:14;4.13;;;2.53;;
19942;SDS011;10133;50.956;17.276;2023-03-12T13:01:03;4.70;;;2.23;;
19942;SDS011;10133;50.956;17.276;2023-03-12T13:03:33;8.77;;;2.90;;
19942;SDS011;10133;50.956;17.276;2023-03-12T13:06:06;7.47;;;3.20;;
19942;SDS011;10133;50.956;17.276;2023-03-12T13:08:35;6.33;;;2.57;;
19942;SDS011;10133;50.956;17.276;2023-03-12T13:11:06;5.53;;;2.50;;
19942;SDS011;10133;50.956;17.276;2023-03-12T13:14:34;6.33;;;2.70;;
19942;SDS011;10133;50.956;17.276;2023-03-12T13:16:36;5.33;;;2.87;;
19942;SDS011;10133;50.956;17.276;2023-03-12T13:27:43;5.93;;;2.33;;
19942;SDS011;10133;50.956;17.276;2023-03-12T13:37:59;5.73;;;2.43;;
19942;SDS011;10133;50.956;17.276;2023-03-12T13:43:09;4.70;;;2.83;;
19942;SDS011;10133;50.956;17.276;2023-03-12T13:45:57;7.40;;;3.43;;
19942;SDS011;10133;50.956;17.276;2023-03-12T13:48:25;7.07;;;3.27;;
19942;SDS011;10133;50.956;17.276;2023-03-12T13:50:54;5.33;;;2.77;;
19942;SDS011;10133;50.956;17.276;2023-03-12T13:53:31;8.07;;;3.20;;
19942;SDS011;10133;50.956;17.276;2023-03-12T13:58:39;6.43;;;3.10;;
19942;SDS011;10133;50.956;17.276;2023-03-12T14:01:15;11.03;;;3.90;;
19942;SDS011;10133;50.956;17.276;2023-03-12T14:03:55;7.60;;;3.73;;
19942;SDS011;10133;50.956;17.276;2023-03-12T14:06:29;6.17;;;3.27;;
19942;SDS011;10133;50.956;17.276;2023-03-12T14:09:18;5.17;;;3.30;;
19942;SDS011;10133;50.956;17.276;2023-03-12T14:17:32;10.47;;;4.10;;
19942;SDS011;10133;50.956;17.276;2023-03-12T14:20:03;8.30;;;4.03;;
19942;SDS011;10133;50.956;17.276;2023-03-12T14:22:37;14.10;;;6.37;;
19942;SDS011;10133;50.956;17.276;2023-03-12T14:25:12;23.10;;;10.23;;
19942;SDS011;10133;50.956;17.276;2023-03-12T14:27:39;52.73;;;19.23;;
19942;SDS011;10133;50.956;17.276;2023-03-12T14:32:51;18.00;;;8.30;;
19942;SDS011;10133;50.956;17.276;2023-03-12T14:35:24;11.93;;;5.73;;
19942;SDS011;10133;50.956;17.276;2023-03-12T14:41:18;11.60;;;5.60;;
19942;SDS011;10133;50.956;17.276;2023-03-12T14:43:50;8.20;;;4.60;;
19942;SDS011;10133;50.956;17.276;2023-03-12T14:46:19;8.83;;;4.37;;
19942;SDS011;10133;50.956;17.276;2023-03-12T14:48:51;8.97;;;4.93;;
19942;SDS011;10133;50.956;17.276;2023-03-12T14:51:29;9.17;;;5.50;;
19942;SDS011;10133;50.956;17.276;2023-03-12T14:54:01;9.13;;;5.43;;
19942;SDS011;10133;50.956;17.276;2023-03-12T14:56:30;8.07;;;4.73;;
19942;SDS011;10133;50.956;17.276;2023-03-12T14:59:03;11.37;;;5.70;;
19942;SDS011;10133;50.956;17.276;2023-03-12T15:02:06;13.83;;;6.43;;
19942;SDS011;10133;50.956;17.276;2023-03-12T15:04:38;15.07;;;7.13;;
19942;SDS011;10133;50.956;17.276;2023-03-12T15:07:08;13.73;;;5.67;;
19942;SDS011;10133;50.956;17.276;2023-03-12T15:09:39;8.30;;;4.97;;
19942;SDS011;10133;50.956;17.276;2023-03-12T15:12:18;9.97;;;4.53;;
19942;SDS011;10133;50.956;17.276;2023-03-12T15:14:51;7.87;;;4.00;;
19942;SDS011;10133;50.956;17.276;2023-03-12T15:17:21;8.37;;;4.03;;
19942;SDS011;10133;50.956;17.276;2023-03-12T15:19:54;6.30;;;3.60;;
19942;SDS011;10133;50.956;17.276;2023-03-12T15:22:23;7.70;;;4.17;;
19942;SDS011;10133;50.956;17.276;2023-03-12T15:24:53;9.20;;;3.77;;
19942;SDS011;10133;50.956;17.276;2023-03-12T15:29:50;8.80;;;4.30;;
19942;SDS011;10133;50.956;17.276;2023-03-12T15:32:18;6.27;;;3.57;;
19942;SDS011;10133;50.956;17.276;2023-03-12T15:34:48;6.60;;;3.40;;
19942;SDS011;10133;50.956;17.276;2023-03-12T15:40:15;6.17;;;2.80;;
19942;SDS011;10133;50.956;17.276;2023-03-12T15:42:46;8.27;;;3.40;;
19942;SDS011;10133;50.956;17.276;2023-03-12T15:47:50;11.10;;;4.40;;
19942;SDS011;10133;50.956;17.276;2023-03-12T15:50:21;8.03;;;4.10;;
19942;SDS011;10133;50.956;17.276;2023-03-12T15:55:27;8.80;;;4.10;;
19942;SDS011;10133;50.956;17.276;2023-03-12T15:57:56;13.77;;;6.13;;
19942;SDS011;10133;50.956;17.276;2023-03-12T16:00:30;8.97;;;4.20;;
19942;SDS011;10133;50.956;17.276;2023-03-12T16:03:16;9.93;;;4.63;;
19942;SDS011;10133;50.956;17.276;2023-03-12T16:05:45;7.57;;;3.70;;
19942;SDS011;10133;50.956;17.276;2023-03-12T16:08:16;9.93;;;3.60;;
19942;SDS011;10133;50.956;17.276;2023-03-12T16:10:48;6.00;;;3.03;;
19942;SDS011;10133;50.956;17.276;2023-03-12T16:13:17;7.90;;;3.60;;
19942;SDS011;10133;50.956;17.276;2023-03-12T16:15:46;7.20;;;3.10;;
19942;SDS011;10133;50.956;17.276;2023-03-12T16:18:17;10.30;;;4.23;;
19942;SDS011;10133;50.956;17.276;2023-03-12T16:20:46;102.70;;;39.07;;
19942;SDS011;10133;50.956;17.276;2023-03-12T16:23:14;143.43;;;52.83;;
19942;SDS011;10133;50.956;17.276;2023-03-12T16:25:46;47.77;;;19.50;;
19942;SDS011;10133;50.956;17.276;2023-03-12T16:28:16;17.57;;;9.37;;
19942;SDS011;10133;50.956;17.276;2023-03-12T16:30:45;11.93;;;6.13;;
19942;SDS011;10133;50.956;17.276;2023-03-12T16:33:13;14.60;;;6.77;;
19942;SDS011;10133;50.956;17.276;2023-03-12T16:35:42;11.00;;;6.63;;
19942;SDS011;10133;50.956;17.276;2023-03-12T16:38:10;10.53;;;6.00;;
19942;SDS011;10133;50.956;17.276;2023-03-12T16:40:38;15.80;;;6.77;;
19942;SDS011;10133;50.956;17.276;2023-03-12T16:43:18;24.80;;;9.73;;
19942;SDS011;10133;50.956;17.276;2023-03-12T16:45:48;20.10;;;7.67;;
19942;SDS011;10133;50.956;17.276;2023-03-12T16:48:19;16.40;;;6.87;;